• Join FlightAware (Why Join?)
  • Login
  • US Flag 
09:16PM EDT


 

Airport Tracker/Info


-or-


 

Live Flight TrackerFlight Track Log ✈ AAL832 ✈ 18-Aug-2013 ✈ KORD - KMIA

Flight Track Log - Related Links

Times and Time Zones

All times are in EDT time to prevent confusion due to time zone crossing. See the AAL832 flight status page for this flight to view local times or setup timezone preferences in your user account.

Time Position Orientation Groundspeed Altitude Reporting Facility
EDT Latitude Longitude Course Direction KTS MPH feet Rate Location/Type
05:53PM 41.9333 -87.9167 159° South 190 219 2,200  Level Chicago TRACON
05:54PM 41.8833 -87.9167 180° South 235 270 3,800 2,220 Climbing Chicago TRACON
05:55PM 41.8133 -87.8833 160° South 248 285 6,800 2,760 Climbing Chicago Center
05:56PM 41.6592 -87.7184 155° Southeast  Level Estimated
05:56PM 41.7447 -87.8261 148° Southeast 285 328 9,900  Level Chicago Center
05:57PM 41.5517 -87.6561 156° South  Level Estimated
05:57PM 41.6578 -87.7581 150° Southeast 300 345 13,000  Level Chicago Center
05:58PM 41.4441 -87.5940 159° South  Level Estimated
05:58PM 41.5733 -87.6908 149° Southeast 353 406 14,900  Level Chicago Center
05:59PM 41.4850 -87.6186 149° Southeast 368 423 17,200 2,100 Climbing Chicago Center
06:00PM 41.3847 -87.5642 158° South 391 450 19,300 1,980 Climbing Chicago Center
06:01PM 41.2722 -87.5461 173° South 404 465 21,400 1,740 Climbing Chicago Center
06:02PM 41.1553 -87.5217 171° South 419 482 23,000 1,020 Climbing Chicago Center
06:03PM 41.0361 -87.4892 168° South 435 501 23,600 1,320 Climbing Chicago Center
06:04PM 40.8936 -87.4500 168° South 437 503 25,800 1,980 Climbing Chicago Center
06:06PM 40.7722 -87.4194 169° South 445 512 27,700 1,500 Climbing Chicago Center
06:07PM 40.6503 -87.3872 169° South 447 514 29,000 1,260 Climbing Chicago Center
06:08PM 40.5264 -87.3550 169° South 456 525 30,400 960 Climbing Chicago Center
06:09PM 40.3889 -87.3050 165° South 458 527 31,000 240 Climbing Chicago Center
06:10PM 40.2700 -87.2517 161° South 454 522 31,000  Level Chicago Center
06:11PM 40.1497 -87.1919 159° South 462 532 31,000  Level Chicago Center
06:12PM 40.0506 -87.1461 161° South 464 534 31,000  Level Indianapolis Center
06:13PM 39.9142 -87.0569 153° Southeast 462 532 31,000  Level Indianapolis Center
06:14PM 39.8078 -86.9664 147° Southeast 460 529 31,000  Level Indianapolis Center
06:15PM 39.7011 -86.8756 147° Southeast 462 532 31,000  Level Indianapolis Center
06:16PM 39.5944 -86.7881 148° Southeast 459 528 31,000  Level Indianapolis Center
06:17PM 39.4661 -86.6833 148° Southeast 461 531 31,000  Level Indianapolis Center
06:18PM 39.3603 -86.5944 147° Southeast 459 528 31,000  Level Indianapolis Center
06:19PM 39.2528 -86.5064 148° Southeast 461 531 31,000  Level Indianapolis Center
06:20PM 39.1469 -86.4192 147° Southeast 458 527 31,000  Level Indianapolis Center
06:21PM 39.0400 -86.3317 148° Southeast 458 527 31,000  Level Indianapolis Center
06:22PM 38.9119 -86.2275 148° Southeast 456 525 31,000  Level Indianapolis Center
06:23PM 38.8053 -86.1400 147° Southeast 452 520 31,000  Level Indianapolis Center
06:24PM 38.6975 -86.0525 148° Southeast 454 522 31,000  Level Indianapolis Center
06:25PM 38.5908 -85.9675 148° Southeast 450 518 31,000 120 Level Indianapolis Center
06:26PM 38.4850 -85.8811 147° Southeast 448 516 31,300 960 Climbing Indianapolis Center
06:27PM 38.3786 -85.7958 148° Southeast 448 516 33,000 1,740 Climbing Indianapolis Center
06:28PM 38.2783 -85.7161 148° Southeast 427 491 34,900 960 Climbing Indianapolis Center
06:29PM 38.1794 -85.6389 148° Southeast 417 480 35,000  Climbing Indianapolis Center
06:30PM 38.0628 -85.5442 147° Southeast 413 475 35,000  Level Indianapolis Center
06:31PM 37.9639 -85.4667 148° Southeast 415 478 35,000  Level Indianapolis Center
06:32PM 37.8667 -85.3917 149° Southeast 409 471 35,000  Level Indianapolis Center
06:33PM 37.7700 -85.3136 147° Southeast 400 460 35,000  Level Indianapolis Center
06:34PM 37.6764 -85.2394 148° Southeast 398 458 35,000  Level Indianapolis Center
06:35PM 37.5817 -85.1672 149° Southeast 397 457 35,000  Level Indianapolis Center
06:36PM 37.4711 -85.0819 149° Southeast 399 459 35,000  Level Indianapolis Center
06:37PM 37.3758 -85.0083 148° Southeast 400 460 35,000  Level Indianapolis Center
06:38PM 37.2803 -84.9347 148° Southeast 402 463 35,000  Level Indianapolis Center
06:39PM 37.1850 -84.8617 149° Southeast 400 460 35,000  Level Indianapolis Center
06:41PM 37.0908 -84.7872 148° Southeast 401 461 35,000  Level Indianapolis Center
06:42PM 36.9886 -84.7092 149° Southeast 404 465 35,000  Level Indianapolis Center
06:43PM 36.8911 -84.6350 149° Southeast 409 471 35,000  Level Indianapolis Center
06:44PM 36.7944 -84.5619 149° Southeast 407 468 35,000  Level Indianapolis Center
06:45PM 36.6853 -84.4781 148° Southeast 414 476 35,000  Level Indianapolis Center
06:46PM 36.5864 -84.4031 149° Southeast 416 479 35,000  Level Indianapolis Center
06:47PM 36.4764 -84.3208 149° Southeast 416 479 35,000  Level Indianapolis Center
06:48PM 36.3764 -84.2456 149° Southeast 419 482 35,000  Level Indianapolis Center
06:49PM 36.2775 -84.1711 149° Southeast 414 476 35,000  Level Indianapolis Center
06:50PM 36.1764 -84.0961 149° Southeast 418 481 35,000  Level Indianapolis Center
06:51PM 36.0761 -84.0225 149° Southeast 416 479 35,000  Level Indianapolis Center
06:52PM 35.9753 -83.9472 149° Southeast 419 482 35,000  Level Indianapolis Center
06:53PM 35.8578 -83.8567 148° Southeast 420 483 35,000  Level Atlanta Center
06:54PM 35.7639 -83.7803 147° Southeast 420 483 35,000  Level Atlanta Center
06:55PM 35.6656 -83.7014 147° Southeast 420 483 35,000  Level Atlanta Center
06:56PM 35.5694 -83.6250 147° Southeast 420 483 35,000  Level Atlanta Center
06:57PM 35.4711 -83.5442 146° Southeast 420 483 35,000  Level Atlanta Center
06:58PM 35.3831 -83.4783 149° Southeast 420 483 35,000  Level Atlanta Center
06:59PM 35.2869 -83.4000 146° Southeast 420 483 35,000  Level Atlanta Center
07:00PM 35.1903 -83.3219 147° Southeast 420 483 35,000  Level Atlanta Center
07:01PM 35.0939 -83.2442 147° Southeast 420 483 35,000  Level Atlanta Center
07:02PM 34.9953 -83.1692 148° Southeast 420 483 35,000  Level Atlanta Center
07:03PM 34.8861 -83.0792 146° Southeast 426 490 35,000  Level Atlanta Center
07:04PM 34.8000 -83.0067 145° Southeast 420 483 35,000  Level Atlanta Center
07:05PM 34.7033 -82.9322 148° Southeast 426 490 35,000  Level Atlanta Center
07:06PM 34.6047 -82.8578 148° Southeast 418 481 35,000  Level Atlanta Center
07:07PM 34.5058 -82.7783 146° Southeast 424 488 35,000  Level Atlanta Center
07:08PM 34.4111 -82.7042 147° Southeast 416 479 35,000  Level Atlanta Center
07:09PM 34.3058 -82.6256 148° Southeast 421 484 35,000  Level Atlanta Center
07:10PM 34.2194 -82.5567 147° Southeast 415 478 35,000  Level Atlanta Center
07:11PM 34.1078 -82.4708 148° Southeast 430 495 35,000  Level Atlanta Center
07:12PM 34.0067 -82.3950 148° Southeast 438 504 35,000  Level Atlanta Center
07:13PM 33.9075 -82.3192 148° Southeast 433 498 35,000 120 Level Atlanta Center
07:14PM 33.8228 -82.2458 144° Southeast 426 490 35,300 480 Climbing Atlanta Center
07:15PM 33.7097 -82.2083 165° South 413 475 36,000 780 Climbing Atlanta Center
07:16PM 33.5944 -82.1808 169° South 413 475 36,900 900 Climbing Atlanta Center
07:17PM 33.4728 -82.1511 168° South 413 475 37,800 540 Climbing Atlanta Center
07:18PM 33.3597 -82.1211 168° South 419 482 38,000 60 Climbing Atlanta Center
07:19PM 33.2550 -82.0964 169° South 419 482 38,000  Level Atlanta Center
07:20PM 33.1458 -82.0664 167° South 414 476 38,000  Level Atlanta Center
07:21PM 33.0328 -82.0392 169° South 414 476 38,000  Level Atlanta Center
07:22PM 32.9217 -82.0097 167° South 414 476 38,000  Level Atlanta Center
07:23PM 32.7394 -81.9664 169° South 409 471 38,000  Level Jacksonville Center
07:24PM 32.6347 -81.9378 167° South 402 463 38,000  Level Jacksonville Center
07:25PM 32.5322 -81.9119 168° South 403 464 38,000  Level Jacksonville Center
07:26PM 32.4108 -81.8811 168° South 408 470 38,000  Level Jacksonville Center
07:27PM 32.2958 -81.8531 168° South 414 476 38,000  Level Jacksonville Center
07:28PM 32.1956 -81.8272 168° South 415 478 38,000  Level Jacksonville Center
07:29PM 32.0700 -81.7942 167° South 415 478 38,000  Level Jacksonville Center
07:30PM 31.9653 -81.7686 168° South 415 478 38,000  Level Jacksonville Center
07:31PM 31.8419 -81.7358 167° South 423 487 38,000  Level Jacksonville Center
07:32PM 31.7247 -81.7081 169° South 428 493 38,000  Level Jacksonville Center
07:33PM 31.6219 -81.6800 167° South 428 493 38,000  Level Jacksonville Center
07:34PM 31.4944 -81.6500 169° South 428 493 38,000  Level Jacksonville Center
07:35PM 31.3792 -81.6200 167° South 428 493 38,000  Level Jacksonville Center
07:36PM 31.2767 -81.5969 169° South 428 493 38,000  Level Jacksonville Center
07:37PM 31.1636 -81.5669 167° South 428 493 38,000  Level Jacksonville Center
07:38PM 31.0464 -81.5372 168° South 428 493 38,000  Level Jacksonville Center
07:39PM 30.9292 -81.5097 169° South 428 493 38,000 -60 Level Jacksonville Center
07:40PM 30.8142 -81.4800 167° South 428 493 37,900  Descending Jacksonville Center
07:41PM 30.6989 -81.4503 167° South 428 493 38,000  Climbing Jacksonville Center
07:42PM 30.5794 -81.4183 167° South 428 493 38,000 -60 Level Jacksonville Center
07:43PM 30.4603 -81.3889 168° South 428 493 37,900  Descending Jacksonville Center
07:44PM 30.3431 -81.3617 169° South 428 493 38,000  Climbing Jacksonville Center
07:45PM 30.2236 -81.3347 169° South 428 493 38,000  Level Jacksonville Center
07:46PM 30.0958 -81.3033 168° South 428 493 38,000  Level Jacksonville Center
07:47PM 29.9783 -81.2644 164° South 433 498 38,000 -60 Level Jacksonville Center
07:48PM 29.8631 -81.2208 162° South 433 498 37,900  Descending Jacksonville Center
07:49PM 29.7478 -81.1822 164° South 438 504 38,000  Climbing Jacksonville Center
07:50PM 29.6325 -81.1411 163° South 438 504 37,900  Descending Jacksonville Center
07:51PM 29.5169 -81.1028 164° South 438 504 38,000  Climbing Jacksonville Center
07:54PM 29.2586 -81.0139 163° South 429 494 38,000  Level Miami Center
07:55PM 29.1450 -80.9739 163° South 429 494 38,000  Level Miami Center
07:56PM 29.0336 -80.9294 161° South 429 494 38,000  Level Miami Center
07:57PM 28.9219 -80.8922 164° South 429 494 38,000  Level Miami Center
07:58PM 28.8103 -80.8575 165° South 429 494 38,000  Level Miami Center
07:59PM 28.7072 -80.8206 163° South 424 488 38,000  Level Miami Center
08:00PM 28.5811 -80.7736 162° South 430 495 38,000 -240 Level Miami Center
08:01PM 28.4653 -80.7342 163° South 430 495 37,600 -720 Descending Miami Center
08:02PM 28.3478 -80.6875 161° South 438 504 36,600 -1,020 Descending Miami Center
08:03PM 28.2297 -80.6506 165° South 443 510 35,600 -1,020 Descending Miami Center
08:04PM 28.1119 -80.6089 163° South 443 510 34,600 -840 Descending Miami Center
08:05PM 27.9981 -80.5722 164° South 443 510 34,000 -300 Descending Miami Center
08:06PM 27.8822 -80.5331 163° South 438 504 34,000 -60 Level Miami Center
08:07PM 27.7703 -80.4967 164° South 432 497 33,900 -1,440 Descending Miami Center
08:08PM 27.6586 -80.4581 163° South 432 497 31,200 -2,700 Descending Miami Center
08:09PM 27.5406 -80.4192 164° South 432 497 28,600 -2,400 Descending Miami Center
08:10PM 27.4267 -80.3828 164° South 432 497 26,400 -2,160 Descending Miami Center
08:11PM 27.3147 -80.3444 163° South 426 490 24,300 -1,500 Descending Miami Center
08:12PM 27.2114 -80.3064 162° South 413 475 23,400 -1,500 Descending Miami Center
08:13PM 27.1100 -80.2636 159° South 402 463 21,400 -1,680 Descending Miami Center
08:14PM 27.0067 -80.2233 161° South 395 455 20,100 -1,380 Descending Miami Center
08:15PM 26.9094 -80.1833 160° South 383 441 18,700 -1,260 Descending Miami Center
08:16PM 26.8164 -80.1433 159° South 370 426 17,600 -1,200 Descending Miami Center
08:17PM 26.7211 -80.1033 159° South 370 426 16,300 -1,260 Descending Miami Center
08:18PM 26.6236 -80.0775 167° South 365 420 15,100 -1,260 Descending Miami Center
08:19PM 26.5256 -80.0608 171° South 353 406 13,800 -1,140 Descending Miami Center
08:20PM 26.4403 -80.0469 172° South 344 396 13,000 -420 Descending Miami Center
08:21PM 26.3489 -80.0306 171° South 347 399 13,000 -660 Level Miami Center
08:22PM 26.2656 -80.0169 172° South 347 399 11,700 -1,020 Descending Miami Center
08:23PM 26.1500 -80.0439 192° South 323 372 11,000 -780 Descending Miami Center
08:24PM 26.0872 -80.0583 192° South 321 369 10,200 -1,200 Descending Miami Center
08:25PM 26.0072 -80.0817 195° South 308 354 8,700 -1,200 Descending Miami Center
08:26PM 25.9456 -80.1261 213° Southwest 295 339 7,900 -360 Descending Miami Center
08:27PM 25.9439 -80.2069 269° West 229 264 8,000 -540 Climbing Miami Center
08:28PM 25.9400 -80.2856 267° West 235 270 6,900 -1,560 Descending Miami Center
08:29PM 25.9333 -80.3914 266° West 245 282 4,600 -1,620 Descending Miami Center
08:30PM 25.8964 -80.4411 230° Southwest 196 226 3,300 -1,140 Descending Miami Center
08:31PM 25.8575 -80.4192 153° Southeast 176 203 2,400 -1,020 Descending Miami Center
08:32PM 25.8333 -80.3794 124° Southeast 148 170 1,400 -900 Descending Miami Center
08:33PM 25.8094 -80.3325 119° Southeast 143 165 600 -660 Descending Miami Center